Fort Lauderdale, FL

7:21 AM EDT on August 28, 2014 (GMT -0400)
Lauderdale-by-the-Sea | Change Station
CLOSE
Current Station
Personal Weather Station
Location: Pompano Beach, FL
Elevation: 5 ft
Nearby Weather Stations

Elev 5 ft 26.21 °N, 80.09 °W | Updated 1 second ago

Mostly Cloudy
Mostly Cloudy
83.8 °F
Feels Like 94 °F
N
1.0
Wind Variable Wind from East
Gusts 6.0 mph

Today
High -- | Low -- °F
--% Chance of Precip.
Yesterday
High -- | Low -- °F
Precip. -- in
6:58 AM 7:44 PM
Waxing Crescent, 7% visible
Pressure 29.96 in
Visibility 10.0 miles
Clouds Few 3000 ft
Scattered Clouds 8500 ft
Mostly Cloudy 11000 ft
Mostly Cloudy 25000 ft
Heat Index 94 °F
Dew Point 78 °F
Humidity 82%
Rainfall 0.00 in
Snow Depth Not available.
UV 0 out of 12
Pollen 4.40 out of 12
Air Quality Not available.
Flu Activity Not available.
METAR KFLL 281053Z 00000KT 10SM FEW030 SCT085 BKN110 BKN250 28/24 A2996 RMK AO2 SLP145 VCSH SW T02830239 PNO $

More Conditions Fewer Conditions

Pressure 29.96 in
Visibility 10.0 miles
Clouds Few 3000 ft
Scattered Clouds 8500 ft
Mostly Cloudy 11000 ft
Mostly Cloudy 25000 ft
Heat Index 94 °F
Dew Point 78 °F
Humidity 82%
Rainfall 0.00 in
Snow Depth Not available.
UV 0 out of 12
Pollen 4.40 out of 12
Air Quality Not available.
Flu Activity Not available.
METAR KFLL 281053Z 00000KT 10SM FEW030 SCT085 BKN110 BKN250 28/24 A2996 RMK AO2 SLP145 VCSH SW T02830239 PNO $

More Conditions Fewer Conditions

10-Day Weather Forecast

Almanac

Astronomy

Aug. 28, 2014 Rise Set
Actual Time 6:58 AM EDT 7:44 PM EDT
Civil Twilight 6:35 AM EDT 8:07 PM EDT
Nautical Twilight 6:07 AM EDT 8:35 PM EDT
Astronomical Twilight 5:39 AM EDT 9:03 PM EDT
Moon 9:29 AM EDT 9:30 PM EDT
Length of Visible Light 13h 32m
Length of Day
12h 45m
Tomorrow will be 1m 27s shorter.
Waxing Crescent, 7% of the Moon is Illuminated
Today
Waxing Crescent
Sep 2
First Quarter
Sep 8
Full
Sep 15
Last Quarter
Sep 24
New

Today's Extremes

State Highs State Lows

Community

WunderPhotos

Upload Photos

1,747,923 photos uploaded!

Nearby

Air Quality

  Air Quality AQ Index Pollutant
Thursday Good
OZONE

Snow Depth

Station Depth Elevation
No new snow has been reported.

Earthquake Activity

City Distance Mag. Time & Date
No recent earthquake activity has been reported nearby.
Minimum magnitude displayed is 2.5.

Coastal Water Temperatures

Place Temperature
Virginia Key, FL 86.0 °F

Nearby Weather Stations